sensor_id;sensor_type;location;lat;lon;timestamp;temperature;humidity
29709;DHT22;16621;47.158;7.592;2022-07-29T00:02:44;18.00;99.90
29709;DHT22;16621;47.158;7.592;2022-07-29T00:05:26;18.00;99.90
29709;DHT22;16621;47.158;7.592;2022-07-29T00:08:11;18.00;99.90
29709;DHT22;16621;47.158;7.592;2022-07-29T00:10:57;18.00;99.90
29709;DHT22;16621;47.158;7.592;2022-07-29T00:13:38;18.00;99.90
29709;DHT22;16621;47.158;7.592;2022-07-29T00:16:20;18.00;99.90
29709;DHT22;16621;47.158;7.592;2022-07-29T00:19:05;18.00;99.90
29709;DHT22;16621;47.158;7.592;2022-07-29T00:21:47;18.00;99.90
29709;DHT22;16621;47.158;7.592;2022-07-29T00:24:30;18.00;99.90
29709;DHT22;16621;47.158;7.592;2022-07-29T00:27:16;18.00;99.90
29709;DHT22;16621;47.158;7.592;2022-07-29T00:30:03;17.80;99.90
29709;DHT22;16621;47.158;7.592;2022-07-29T00:32:42;17.80;99.90
29709;DHT22;16621;47.158;7.592;2022-07-29T00:35:28;17.80;99.90
29709;DHT22;16621;47.158;7.592;2022-07-29T00:38:19;17.80;99.90
29709;DHT22;16621;47.158;7.592;2022-07-29T00:41:02;17.80;99.90
29709;DHT22;16621;47.158;7.592;2022-07-29T00:43:48;17.80;99.90
29709;DHT22;16621;47.158;7.592;2022-07-29T00:46:33;17.70;99.90
29709;DHT22;16621;47.158;7.592;2022-07-29T00:49:16;17.70;99.90
29709;DHT22;16621;47.158;7.592;2022-07-29T00:52:06;17.70;99.90
29709;DHT22;16621;47.158;7.592;2022-07-29T00:54:46;17.70;99.90
29709;DHT22;16621;47.158;7.592;2022-07-29T00:57:29;17.70;99.90
29709;DHT22;16621;47.158;7.592;2022-07-29T01:00:14;17.70;99.90
29709;DHT22;16621;47.158;7.592;2022-07-29T01:02:54;17.70;99.90
29709;DHT22;16621;47.158;7.592;2022-07-29T01:05:41;17.70;99.90
29709;DHT22;16621;47.158;7.592;2022-07-29T01:08:26;17.70;99.90
29709;DHT22;16621;47.158;7.592;2022-07-29T01:11:15;17.70;99.90
29709;DHT22;16621;47.158;7.592;2022-07-29T01:14:01;17.70;99.90
29709;DHT22;16621;47.158;7.592;2022-07-29T01:17:02;17.80;99.90
29709;DHT22;16621;47.158;7.592;2022-07-29T01:27:44;17.90;99.90
29709;DHT22;16621;47.158;7.592;2022-07-29T01:30:27;17.90;99.90
29709;DHT22;16621;47.158;7.592;2022-07-29T01:33:11;18.00;99.90
29709;DHT22;16621;47.158;7.592;2022-07-29T01:36:11;18.00;99.90
29709;DHT22;16621;47.158;7.592;2022-07-29T01:38:59;18.00;99.90
29709;DHT22;16621;47.158;7.592;2022-07-29T01:41:44;18.00;99.90
29709;DHT22;16621;47.158;7.592;2022-07-29T01:44:48;18.00;99.90
29709;DHT22;16621;47.158;7.592;2022-07-29T01:47:19;18.10;99.90
29709;DHT22;16621;47.158;7.592;2022-07-29T01:49:58;18.10;99.90
29709;DHT22;16621;47.158;7.592;2022-07-29T01:52:45;18.10;99.90
29709;DHT22;16621;47.158;7.592;2022-07-29T01:55:24;18.00;99.90
29709;DHT22;16621;47.158;7.592;2022-07-29T01:58:11;18.00;99.90
29709;DHT22;16621;47.158;7.592;2022-07-29T02:00:58;18.00;99.90
29709;DHT22;16621;47.158;7.592;2022-07-29T02:03:47;18.00;99.90
29709;DHT22;16621;47.158;7.592;2022-07-29T02:06:31;18.10;99.90
29709;DHT22;16621;47.158;7.592;2022-07-29T02:09:19;18.00;99.90
29709;DHT22;16621;47.158;7.592;2022-07-29T02:12:00;18.00;99.90
29709;DHT22;16621;47.158;7.592;2022-07-29T02:14:47;18.00;99.90
29709;DHT22;16621;47.158;7.592;2022-07-29T02:17:33;18.00;99.90
29709;DHT22;16621;47.158;7.592;2022-07-29T02:20:12;18.00;99.90
29709;DHT22;16621;47.158;7.592;2022-07-29T02:22:56;18.00;99.90
29709;DHT22;16621;47.158;7.592;2022-07-29T02:25:43;18.10;99.90
29709;DHT22;16621;47.158;7.592;2022-07-29T02:28:30;18.00;99.90
29709;DHT22;16621;47.158;7.592;2022-07-29T02:31:19;18.00;99.90
29709;DHT22;16621;47.158;7.592;2022-07-29T02:34:03;17.90;99.90
29709;DHT22;16621;47.158;7.592;2022-07-29T02:36:47;17.80;99.90
29709;DHT22;16621;47.158;7.592;2022-07-29T02:39:35;17.80;99.90
29709;DHT22;16621;47.158;7.592;2022-07-29T02:42:21;17.80;99.90
29709;DHT22;16621;47.158;7.592;2022-07-29T02:45:07;17.90;99.90
29709;DHT22;16621;47.158;7.592;2022-07-29T02:47:52;17.90;99.90
29709;DHT22;16621;47.158;7.592;2022-07-29T02:50:38;17.90;99.90
29709;DHT22;16621;47.158;7.592;2022-07-29T02:53:22;17.90;99.90
29709;DHT22;16621;47.158;7.592;2022-07-29T02:58:42;17.80;99.90
29709;DHT22;16621;47.158;7.592;2022-07-29T03:01:30;17.80;99.90
29709;DHT22;16621;47.158;7.592;2022-07-29T03:04:14;17.70;99.90
29709;DHT22;16621;47.158;7.592;2022-07-29T03:06:59;17.70;99.90
29709;DHT22;16621;47.158;7.592;2022-07-29T03:09:47;17.80;99.90
29709;DHT22;16621;47.158;7.592;2022-07-29T03:12:33;17.80;99.90
29709;DHT22;16621;47.158;7.592;2022-07-29T03:15:21;17.80;99.90
29709;DHT22;16621;47.158;7.592;2022-07-29T03:18:06;17.80;99.90
29709;DHT22;16621;47.158;7.592;2022-07-29T03:20:46;17.80;99.90
29709;DHT22;16621;47.158;7.592;2022-07-29T03:23:32;17.80;99.90
29709;DHT22;16621;47.158;7.592;2022-07-29T03:26:22;17.80;99.90
29709;DHT22;16621;47.158;7.592;2022-07-29T03:29:09;17.80;99.90
29709;DHT22;16621;47.158;7.592;2022-07-29T03:31:48;17.80;99.90
29709;DHT22;16621;47.158;7.592;2022-07-29T03:34:31;17.90;99.90
29709;DHT22;16621;47.158;7.592;2022-07-29T03:37:16;17.80;99.90
29709;DHT22;16621;47.158;7.592;2022-07-29T03:40:03;17.80;99.90
29709;DHT22;16621;47.158;7.592;2022-07-29T03:42:41;17.80;99.90
29709;DHT22;16621;47.158;7.592;2022-07-29T03:45:29;17.80;99.90
29709;DHT22;16621;47.158;7.592;2022-07-29T03:48:16;17.80;99.90
29709;DHT22;16621;47.158;7.592;2022-07-29T03:51:03;17.80;99.90
29709;DHT22;16621;47.158;7.592;2022-07-29T03:53:51;17.80;99.90
29709;DHT22;16621;47.158;7.592;2022-07-29T03:56:40;17.80;99.90
29709;DHT22;16621;47.158;7.592;2022-07-29T03:59:27;17.80;99.90
29709;DHT22;16621;47.158;7.592;2022-07-29T04:02:16;17.70;99.90
29709;DHT22;16621;47.158;7.592;2022-07-29T04:05:05;17.70;99.90
29709;DHT22;16621;47.158;7.592;2022-07-29T04:07:54;17.70;99.90
29709;DHT22;16621;47.158;7.592;2022-07-29T04:10:40;17.70;99.90
29709;DHT22;16621;47.158;7.592;2022-07-29T04:13:30;17.80;99.90
29709;DHT22;16621;47.158;7.592;2022-07-29T04:16:08;17.80;99.90
29709;DHT22;16621;47.158;7.592;2022-07-29T04:18:55;17.80;99.90
29709;DHT22;16621;47.158;7.592;2022-07-29T04:21:46;17.70;99.90
29709;DHT22;16621;47.158;7.592;2022-07-29T04:24:31;17.70;99.90
29709;DHT22;16621;47.158;7.592;2022-07-29T04:27:23;17.70;99.90
29709;DHT22;16621;47.158;7.592;2022-07-29T04:30:09;17.70;99.90
29709;DHT22;16621;47.158;7.592;2022-07-29T04:32:58;17.70;99.90
29709;DHT22;16621;47.158;7.592;2022-07-29T04:35:41;17.70;99.90
29709;DHT22;16621;47.158;7.592;2022-07-29T04:38:29;17.60;99.90
29709;DHT22;16621;47.158;7.592;2022-07-29T04:41:12;17.60;99.90
29709;DHT22;16621;47.158;7.592;2022-07-29T04:43:58;17.60;99.90
29709;DHT22;16621;47.158;7.592;2022-07-29T04:46:40;17.60;99.90
29709;DHT22;16621;47.158;7.592;2022-07-29T04:49:25;17.60;99.90
29709;DHT22;16621;47.158;7.592;2022-07-29T04:52:09;17.60;99.90
29709;DHT22;16621;47.158;7.592;2022-07-29T04:54:51;17.70;99.90
29709;DHT22;16621;47.158;7.592;2022-07-29T04:57:37;17.70;99.90
29709;DHT22;16621;47.158;7.592;2022-07-29T05:00:27;17.70;99.90
29709;DHT22;16621;47.158;7.592;2022-07-29T05:03:19;17.70;99.90
29709;DHT22;16621;47.158;7.592;2022-07-29T05:06:04;17.70;99.90
29709;DHT22;16621;47.158;7.592;2022-07-29T05:08:50;17.70;99.90
29709;DHT22;16621;47.158;7.592;2022-07-29T05:11:38;17.70;99.90
29709;DHT22;16621;47.158;7.592;2022-07-29T05:14:27;17.70;99.90
29709;DHT22;16621;47.158;7.592;2022-07-29T05:17:12;17.70;99.90
29709;DHT22;16621;47.158;7.592;2022-07-29T05:19:51;17.70;99.90
29709;DHT22;16621;47.158;7.592;2022-07-29T05:22:28;17.60;99.90
29709;DHT22;16621;47.158;7.592;2022-07-29T05:25:06;17.70;99.90
29709;DHT22;16621;47.158;7.592;2022-07-29T05:27:49;17.60;99.90
29709;DHT22;16621;47.158;7.592;2022-07-29T05:30:34;17.60;99.90
29709;DHT22;16621;47.158;7.592;2022-07-29T05:33:17;17.60;99.90
29709;DHT22;16621;47.158;7.592;2022-07-29T05:36:03;17.60;99.90
29709;DHT22;16621;47.158;7.592;2022-07-29T05:38:44;17.60;99.90
29709;DHT22;16621;47.158;7.592;2022-07-29T05:41:32;17.60;99.90
29709;DHT22;16621;47.158;7.592;2022-07-29T05:44:13;17.50;99.90
29709;DHT22;16621;47.158;7.592;2022-07-29T05:46:58;17.60;99.90
29709;DHT22;16621;47.158;7.592;2022-07-29T05:49:44;17.70;99.90
29709;DHT22;16621;47.158;7.592;2022-07-29T05:52:31;17.70;99.90
29709;DHT22;16621;47.158;7.592;2022-07-29T05:55:13;17.80;99.90
29709;DHT22;16621;47.158;7.592;2022-07-29T05:57:58;17.70;99.90
29709;DHT22;16621;47.158;7.592;2022-07-29T06:00:41;17.70;99.90
29709;DHT22;16621;47.158;7.592;2022-07-29T06:03:31;17.80;99.90
29709;DHT22;16621;47.158;7.592;2022-07-29T06:06:18;17.70;99.90
29709;DHT22;16621;47.158;7.592;2022-07-29T06:09:04;17.80;99.90
29709;DHT22;16621;47.158;7.592;2022-07-29T06:11:50;17.80;99.90
29709;DHT22;16621;47.158;7.592;2022-07-29T06:14:32;17.80;99.90
29709;DHT22;16621;47.158;7.592;2022-07-29T06:17:15;17.80;99.90
29709;DHT22;16621;47.158;7.592;2022-07-29T06:19:56;17.80;99.90
29709;DHT22;16621;47.158;7.592;2022-07-29T06:22:34;17.90;99.90
29709;DHT22;16621;47.158;7.592;2022-07-29T06:25:22;17.90;99.90
29709;DHT22;16621;47.158;7.592;2022-07-29T06:28:11;17.90;99.90
29709;DHT22;16621;47.158;7.592;2022-07-29T06:30:58;18.00;99.90
29709;DHT22;16621;47.158;7.592;2022-07-29T06:33:39;18.00;99.90
29709;DHT22;16621;47.158;7.592;2022-07-29T06:36:22;18.00;99.90
29709;DHT22;16621;47.158;7.592;2022-07-29T06:39:11;17.90;99.90
29709;DHT22;16621;47.158;7.592;2022-07-29T06:41:57;18.00;99.90
29709;DHT22;16621;47.158;7.592;2022-07-29T06:44:30;18.10;99.90
29709;DHT22;16621;47.158;7.592;2022-07-29T06:47:14;18.20;99.90
29709;DHT22;16621;47.158;7.592;2022-07-29T06:50:02;18.20;99.90
29709;DHT22;16621;47.158;7.592;2022-07-29T06:52:47;18.30;99.90
29709;DHT22;16621;47.158;7.592;2022-07-29T06:55:31;18.30;99.90
29709;DHT22;16621;47.158;7.592;2022-07-29T06:58:17;18.40;99.90
29709;DHT22;16621;47.158;7.592;2022-07-29T07:01:02;18.40;99.90
29709;DHT22;16621;47.158;7.592;2022-07-29T07:03:49;18.50;99.90
29709;DHT22;16621;47.158;7.592;2022-07-29T07:06:35;18.50;99.90
29709;DHT22;16621;47.158;7.592;2022-07-29T07:09:20;18.50;99.90
29709;DHT22;16621;47.158;7.592;2022-07-29T07:12:05;18.60;99.90
29709;DHT22;16621;47.158;7.592;2022-07-29T07:14:48;18.60;99.90
29709;DHT22;16621;47.158;7.592;2022-07-29T07:17:34;18.60;99.90
29709;DHT22;16621;47.158;7.592;2022-07-29T07:20:23;18.60;99.90
29709;DHT22;16621;47.158;7.592;2022-07-29T07:23:10;18.60;99.90
29709;DHT22;16621;47.158;7.592;2022-07-29T07:25:57;18.70;99.90
29709;DHT22;16621;47.158;7.592;2022-07-29T07:28:46;18.70;99.90
29709;DHT22;16621;47.158;7.592;2022-07-29T07:31:31;18.70;99.90
29709;DHT22;16621;47.158;7.592;2022-07-29T07:34:17;18.70;99.90
29709;DHT22;16621;47.158;7.592;2022-07-29T07:40:09;18.80;99.90
29709;DHT22;16621;47.158;7.592;2022-07-29T07:42:55;19.30;99.90
29709;DHT22;16621;47.158;7.592;2022-07-29T07:45:39;19.80;99.90
29709;DHT22;16621;47.158;7.592;2022-07-29T07:48:22;19.90;99.90
29709;DHT22;16621;47.158;7.592;2022-07-29T07:51:04;19.80;99.90
29709;DHT22;16621;47.158;7.592;2022-07-29T07:53:50;19.70;99.90
29709;DHT22;16621;47.158;7.592;2022-07-29T07:56:32;19.60;99.90
29709;DHT22;16621;47.158;7.592;2022-07-29T07:59:14;19.50;99.90
29709;DHT22;16621;47.158;7.592;2022-07-29T08:07:37;19.40;99.90
29709;DHT22;16621;47.158;7.592;2022-07-29T08:10:36;19.40;99.90
29709;DHT22;16621;47.158;7.592;2022-07-29T08:13:31;19.60;99.90
29709;DHT22;16621;47.158;7.592;2022-07-29T08:16:25;19.80;99.90
29709;DHT22;16621;47.158;7.592;2022-07-29T08:19:21;20.10;99.90
29709;DHT22;16621;47.158;7.592;2022-07-29T08:22:16;20.30;99.90
29709;DHT22;16621;47.158;7.592;2022-07-29T08:25:09;20.60;99.90
29709;DHT22;16621;47.158;7.592;2022-07-29T08:27:58;20.80;99.90
29709;DHT22;16621;47.158;7.592;2022-07-29T08:30:52;20.90;99.90
29709;DHT22;16621;47.158;7.592;2022-07-29T08:33:47;21.00;99.90
29709;DHT22;16621;47.158;7.592;2022-07-29T08:36:43;20.90;99.90
29709;DHT22;16621;47.158;7.592;2022-07-29T08:39:36;21.10;99.90
29709;DHT22;16621;47.158;7.592;2022-07-29T08:42:30;21.20;99.90
29709;DHT22;16621;47.158;7.592;2022-07-29T08:45:26;21.70;99.90
29709;DHT22;16621;47.158;7.592;2022-07-29T08:48:22;21.90;99.90
29709;DHT22;16621;47.158;7.592;2022-07-29T08:51:22;21.90;99.90
29709;DHT22;16621;47.158;7.592;2022-07-29T08:54:27;22.00;99.90
29709;DHT22;16621;47.158;7.592;2022-07-29T08:57:25;22.20;99.90
29709;DHT22;16621;47.158;7.592;2022-07-29T09:00:15;22.60;99.90
29709;DHT22;16621;47.158;7.592;2022-07-29T09:03:27;22.80;99.90
29709;DHT22;16621;47.158;7.592;2022-07-29T09:06:27;22.80;99.90
29709;DHT22;16621;47.158;7.592;2022-07-29T09:12:36;23.00;99.90
29709;DHT22;16621;47.158;7.592;2022-07-29T09:15:33;23.10;99.90
29709;DHT22;16621;47.158;7.592;2022-07-29T09:18:48;23.40;99.90
29709;DHT22;16621;47.158;7.592;2022-07-29T09:21:44;23.60;99.90
29709;DHT22;16621;47.158;7.592;2022-07-29T09:24:42;23.60;99.90
29709;DHT22;16621;47.158;7.592;2022-07-29T09:27:28;23.50;99.90
29709;DHT22;16621;47.158;7.592;2022-07-29T09:30:27;23.50;99.90
29709;DHT22;16621;47.158;7.592;2022-07-29T09:33:42;23.80;99.90
29709;DHT22;16621;47.158;7.592;2022-07-29T09:36:45;24.10;99.90
29709;DHT22;16621;47.158;7.592;2022-07-29T09:39:32;24.30;99.90
29709;DHT22;16621;47.158;7.592;2022-07-29T09:42:14;24.50;99.90
29709;DHT22;16621;47.158;7.592;2022-07-29T09:48:39;25.00;99.90
29709;DHT22;16621;47.158;7.592;2022-07-29T09:51:27;25.20;99.90
29709;DHT22;16621;47.158;7.592;2022-07-29T09:54:28;25.20;99.90
29709;DHT22;16621;47.158;7.592;2022-07-29T09:57:27;25.30;99.90
29709;DHT22;16621;47.158;7.592;2022-07-29T10:00:17;25.20;99.90
29709;DHT22;16621;47.158;7.592;2022-07-29T10:02:56;25.30;99.90
29709;DHT22;16621;47.158;7.592;2022-07-29T10:05:43;25.20;99.90
29709;DHT22;16621;47.158;7.592;2022-07-29T10:08:25;24.90;99.90
29709;DHT22;16621;47.158;7.592;2022-07-29T10:11:18;24.80;99.90
29709;DHT22;16621;47.158;7.592;2022-07-29T10:14:04;24.60;99.90
29709;DHT22;16621;47.158;7.592;2022-07-29T10:16:49;24.30;99.90
29709;DHT22;16621;47.158;7.592;2022-07-29T10:19:32;24.20;99.90
29709;DHT22;16621;47.158;7.592;2022-07-29T10:22:19;24.20;99.90
29709;DHT22;16621;47.158;7.592;2022-07-29T10:25:08;24.20;99.90
29709;DHT22;16621;47.158;7.592;2022-07-29T10:27:55;24.10;99.90
29709;DHT22;16621;47.158;7.592;2022-07-29T10:30:37;24.10;99.90
29709;DHT22;16621;47.158;7.592;2022-07-29T10:42:05;24.00;99.90
29709;DHT22;16621;47.158;7.592;2022-07-29T10:44:45;23.90;99.90
29709;DHT22;16621;47.158;7.592;2022-07-29T10:47:30;24.00;99.90
29709;DHT22;16621;47.158;7.592;2022-07-29T10:50:16;24.10;99.90
29709;DHT22;16621;47.158;7.592;2022-07-29T10:53:03;24.20;99.90
29709;DHT22;16621;47.158;7.592;2022-07-29T10:55:49;24.30;99.90
29709;DHT22;16621;47.158;7.592;2022-07-29T10:58:38;24.30;99.90
29709;DHT22;16621;47.158;7.592;2022-07-29T11:01:36;24.20;99.90
29709;DHT22;16621;47.158;7.592;2022-07-29T11:07:06;24.30;99.90
29709;DHT22;16621;47.158;7.592;2022-07-29T11:10:30;24.20;99.90
29709;DHT22;16621;47.158;7.592;2022-07-29T11:15:20;24.00;99.90
29709;DHT22;16621;47.158;7.592;2022-07-29T11:18:02;24.00;99.90
29709;DHT22;16621;47.158;7.592;2022-07-29T11:23:36;24.10;99.90
29709;DHT22;16621;47.158;7.592;2022-07-29T11:26:26;24.10;99.90
29709;DHT22;16621;47.158;7.592;2022-07-29T11:31:53;24.20;99.90
29709;DHT22;16621;47.158;7.592;2022-07-29T11:39:43;24.20;99.90
29709;DHT22;16621;47.158;7.592;2022-07-29T11:45:12;24.40;99.90
29709;DHT22;16621;47.158;7.592;2022-07-29T11:47:49;24.40;99.90
29709;DHT22;16621;47.158;7.592;2022-07-29T11:50:39;24.40;99.90
29709;DHT22;16621;47.158;7.592;2022-07-29T11:53:20;24.40;99.90
29709;DHT22;16621;47.158;7.592;2022-07-29T11:56:01;24.50;99.90
29709;DHT22;16621;47.158;7.592;2022-07-29T11:58:41;24.50;99.90
29709;DHT22;16621;47.158;7.592;2022-07-29T12:01:30;24.50;99.90
29709;DHT22;16621;47.158;7.592;2022-07-29T12:04:11;24.50;99.90
29709;DHT22;16621;47.158;7.592;2022-07-29T12:07:01;24.50;99.90
29709;DHT22;16621;47.158;7.592;2022-07-29T12:09:48;24.40;99.90
29709;DHT22;16621;47.158;7.592;2022-07-29T12:12:25;24.20;99.90
29709;DHT22;16621;47.158;7.592;2022-07-29T12:15:17;24.10;99.90
29709;DHT22;16621;47.158;7.592;2022-07-29T12:18:08;24.00;99.90
29709;DHT22;16621;47.158;7.592;2022-07-29T12:20:47;23.90;99.90
29709;DHT22;16621;47.158;7.592;2022-07-29T12:23:33;23.80;99.90
29709;DHT22;16621;47.158;7.592;2022-07-29T12:26:21;23.60;99.90
29709;DHT22;16621;47.158;7.592;2022-07-29T12:32:06;23.40;99.90
29709;DHT22;16621;47.158;7.592;2022-07-29T12:34:45;23.20;99.90
29709;DHT22;16621;47.158;7.592;2022-07-29T12:37:34;23.00;99.90
29709;DHT22;16621;47.158;7.592;2022-07-29T12:40:12;22.90;99.90
29709;DHT22;16621;47.158;7.592;2022-07-29T12:43:05;22.80;99.90
29709;DHT22;16621;47.158;7.592;2022-07-29T12:45:44;22.70;99.90
29709;DHT22;16621;47.158;7.592;2022-07-29T12:48:36;22.70;99.90
29709;DHT22;16621;47.158;7.592;2022-07-29T12:51:17;22.60;99.90
29709;DHT22;16621;47.158;7.592;2022-07-29T12:54:15;22.50;99.90
29709;DHT22;16621;47.158;7.592;2022-07-29T12:57:01;22.40;99.90
29709;DHT22;16621;47.158;7.592;2022-07-29T12:59:41;22.20;99.90
29709;DHT22;16621;47.158;7.592;2022-07-29T13:02:26;22.10;99.90
29709;DHT22;16621;47.158;7.592;2022-07-29T13:05:05;22.00;99.90
29709;DHT22;16621;47.158;7.592;2022-07-29T13:07:44;21.80;99.90
29709;DHT22;16621;47.158;7.592;2022-07-29T13:10:24;21.80;99.90
29709;DHT22;16621;47.158;7.592;2022-07-29T13:13:11;21.70;99.90
29709;DHT22;16621;47.158;7.592;2022-07-29T13:16:04;21.60;99.90
29709;DHT22;16621;47.158;7.592;2022-07-29T13:18:41;21.40;99.90
29709;DHT22;16621;47.158;7.592;2022-07-29T13:21:20;21.30;99.90
29709;DHT22;16621;47.158;7.592;2022-07-29T13:23:58;21.10;99.90
29709;DHT22;16621;47.158;7.592;2022-07-29T13:26:39;21.00;99.90
29709;DHT22;16621;47.158;7.592;2022-07-29T13:29:20;21.00;99.90
29709;DHT22;16621;47.158;7.592;2022-07-29T13:34:30;20.90;99.90
29709;DHT22;16621;47.158;7.592;2022-07-29T13:37:12;20.80;99.90
29709;DHT22;16621;47.158;7.592;2022-07-29T13:39:54;20.70;99.90
29709;DHT22;16621;47.158;7.592;2022-07-29T13:42:37;20.60;99.90
29709;DHT22;16621;47.158;7.592;2022-07-29T13:45:22;20.60;99.90
29709;DHT22;16621;47.158;7.592;2022-07-29T13:48:08;20.50;99.90
29709;DHT22;16621;47.158;7.592;2022-07-29T13:50:54;20.50;99.90
29709;DHT22;16621;47.158;7.592;2022-07-29T13:53:38;20.40;99.90
29709;DHT22;16621;47.158;7.592;2022-07-29T13:56:24;20.50;99.90
29709;DHT22;16621;47.158;7.592;2022-07-29T13:59:08;20.30;99.90
29709;DHT22;16621;47.158;7.592;2022-07-29T14:01:50;20.30;99.90
29709;DHT22;16621;47.158;7.592;2022-07-29T14:04:34;20.30;99.90
29709;DHT22;16621;47.158;7.592;2022-07-29T14:07:22;20.30;99.90
29709;DHT22;16621;47.158;7.592;2022-07-29T14:10:14;20.20;99.90
29709;DHT22;16621;47.158;7.592;2022-07-29T14:12:57;20.30;99.90
29709;DHT22;16621;47.158;7.592;2022-07-29T14:15:44;20.20;99.90
29709;DHT22;16621;47.158;7.592;2022-07-29T14:18:31;20.10;99.90
29709;DHT22;16621;47.158;7.592;2022-07-29T14:21:17;20.10;99.90
29709;DHT22;16621;47.158;7.592;2022-07-29T14:24:03;20.00;99.90
29709;DHT22;16621;47.158;7.592;2022-07-29T14:26:53;20.10;99.90
29709;DHT22;16621;47.158;7.592;2022-07-29T14:29:44;20.00;99.90
29709;DHT22;16621;47.158;7.592;2022-07-29T14:32:34;20.00;99.90
29709;DHT22;16621;47.158;7.592;2022-07-29T14:35:23;20.00;99.90
29709;DHT22;16621;47.158;7.592;2022-07-29T14:38:19;20.00;99.90
29709;DHT22;16621;47.158;7.592;2022-07-29T14:41:10;20.00;99.90
29709;DHT22;16621;47.158;7.592;2022-07-29T14:43:59;20.00;99.90
29709;DHT22;16621;47.158;7.592;2022-07-29T14:46:46;20.10;99.90
29709;DHT22;16621;47.158;7.592;2022-07-29T14:49:33;20.20;99.90
29709;DHT22;16621;47.158;7.592;2022-07-29T14:52:23;20.30;99.90
29709;DHT22;16621;47.158;7.592;2022-07-29T14:55:12;20.30;99.90
29709;DHT22;16621;47.158;7.592;2022-07-29T14:57:57;20.40;99.90
29709;DHT22;16621;47.158;7.592;2022-07-29T15:00:44;20.50;99.90
29709;DHT22;16621;47.158;7.592;2022-07-29T15:06:40;20.50;99.90
29709;DHT22;16621;47.158;7.592;2022-07-29T15:09:28;20.60;99.90
29709;DHT22;16621;47.158;7.592;2022-07-29T15:12:18;20.50;99.90
29709;DHT22;16621;47.158;7.592;2022-07-29T15:15:06;20.40;99.90
29709;DHT22;16621;47.158;7.592;2022-07-29T15:17:53;20.30;99.90
29709;DHT22;16621;47.158;7.592;2022-07-29T15:20:42;20.20;99.90
29709;DHT22;16621;47.158;7.592;2022-07-29T15:23:29;20.20;99.90
29709;DHT22;16621;47.158;7.592;2022-07-29T15:26:16;20.10;99.90
29709;DHT22;16621;47.158;7.592;2022-07-29T15:29:08;20.00;99.90
29709;DHT22;16621;47.158;7.592;2022-07-29T15:34:31;20.10;99.90
29709;DHT22;16621;47.158;7.592;2022-07-29T15:37:19;20.10;99.90
29709;DHT22;16621;47.158;7.592;2022-07-29T15:40:08;20.20;99.90
29709;DHT22;16621;47.158;7.592;2022-07-29T15:42:54;20.20;99.90
29709;DHT22;16621;47.158;7.592;2022-07-29T15:45:45;20.20;99.90
29709;DHT22;16621;47.158;7.592;2022-07-29T15:48:41;20.30;99.90
29709;DHT22;16621;47.158;7.592;2022-07-29T15:51:28;20.40;99.90
29709;DHT22;16621;47.158;7.592;2022-07-29T15:54:27;20.60;99.90
29709;DHT22;16621;47.158;7.592;2022-07-29T15:57:18;20.70;99.90
29709;DHT22;16621;47.158;7.592;2022-07-29T16:00:08;20.90;99.90
29709;DHT22;16621;47.158;7.592;2022-07-29T16:02:56;21.00;99.90
29709;DHT22;16621;47.158;7.592;2022-07-29T16:05:43;21.10;99.90
29709;DHT22;16621;47.158;7.592;2022-07-29T16:08:30;21.20;99.90
29709;DHT22;16621;47.158;7.592;2022-07-29T16:11:20;21.10;99.90
29709;DHT22;16621;47.158;7.592;2022-07-29T16:14:03;21.10;99.90
29709;DHT22;16621;47.158;7.592;2022-07-29T16:16:52;21.10;99.90
29709;DHT22;16621;47.158;7.592;2022-07-29T16:19:42;21.10;99.90
29709;DHT22;16621;47.158;7.592;2022-07-29T16:22:27;21.10;99.90
29709;DHT22;16621;47.158;7.592;2022-07-29T16:25:13;21.00;99.90
29709;DHT22;16621;47.158;7.592;2022-07-29T16:27:58;20.90;99.90
29709;DHT22;16621;47.158;7.592;2022-07-29T16:30:44;20.90;99.90
29709;DHT22;16621;47.158;7.592;2022-07-29T16:33:27;20.90;99.90
29709;DHT22;16621;47.158;7.592;2022-07-29T16:36:12;20.80;99.90
29709;DHT22;16621;47.158;7.592;2022-07-29T16:38:56;20.80;99.90
29709;DHT22;16621;47.158;7.592;2022-07-29T16:41:45;20.80;99.90
29709;DHT22;16621;47.158;7.592;2022-07-29T16:44:33;20.80;99.90
29709;DHT22;16621;47.158;7.592;2022-07-29T16:47:18;20.70;99.90
29709;DHT22;16621;47.158;7.592;2022-07-29T16:50:05;20.70;99.90
29709;DHT22;16621;47.158;7.592;2022-07-29T16:52:54;20.60;99.90
29709;DHT22;16621;47.158;7.592;2022-07-29T16:55:41;20.60;99.90
29709;DHT22;16621;47.158;7.592;2022-07-29T16:58:25;20.50;99.90
29709;DHT22;16621;47.158;7.592;2022-07-29T17:01:17;20.50;99.90
29709;DHT22;16621;47.158;7.592;2022-07-29T17:04:08;20.50;99.90
29709;DHT22;16621;47.158;7.592;2022-07-29T17:06:57;20.50;99.90
29709;DHT22;16621;47.158;7.592;2022-07-29T17:09:44;20.40;99.90
29709;DHT22;16621;47.158;7.592;2022-07-29T17:12:34;20.40;99.90
29709;DHT22;16621;47.158;7.592;2022-07-29T17:15:24;20.30;99.90
29709;DHT22;16621;47.158;7.592;2022-07-29T17:18:12;20.30;99.90
29709;DHT22;16621;47.158;7.592;2022-07-29T17:21:00;20.30;99.90
29709;DHT22;16621;47.158;7.592;2022-07-29T17:23:46;20.20;99.90
29709;DHT22;16621;47.158;7.592;2022-07-29T17:26:36;20.10;99.90
29709;DHT22;16621;47.158;7.592;2022-07-29T17:29:25;20.10;99.90
29709;DHT22;16621;47.158;7.592;2022-07-29T17:32:12;20.10;99.90
29709;DHT22;16621;47.158;7.592;2022-07-29T17:35:00;20.10;99.90
29709;DHT22;16621;47.158;7.592;2022-07-29T17:38:00;20.00;99.90
29709;DHT22;16621;47.158;7.592;2022-07-29T17:40:46;19.90;99.90
29709;DHT22;16621;47.158;7.592;2022-07-29T17:43:35;19.70;99.90
29709;DHT22;16621;47.158;7.592;2022-07-29T17:46:24;19.10;99.90
29709;DHT22;16621;47.158;7.592;2022-07-29T17:49:13;18.60;99.90
29709;DHT22;16621;47.158;7.592;2022-07-29T17:54:32;18.20;99.90
29709;DHT22;16621;47.158;7.592;2022-07-29T17:57:24;18.30;99.90
29709;DHT22;16621;47.158;7.592;2022-07-29T18:00:17;18.30;99.90
29709;DHT22;16621;47.158;7.592;2022-07-29T18:03:07;18.20;99.90
29709;DHT22;16621;47.158;7.592;2022-07-29T18:05:56;18.20;99.90
29709;DHT22;16621;47.158;7.592;2022-07-29T18:08:45;18.10;99.90
29709;DHT22;16621;47.158;7.592;2022-07-29T18:11:34;18.10;99.90
29709;DHT22;16621;47.158;7.592;2022-07-29T18:14:25;18.20;99.90
29709;DHT22;16621;47.158;7.592;2022-07-29T18:17:11;18.20;99.90
29709;DHT22;16621;47.158;7.592;2022-07-29T18:19:59;18.20;99.90
29709;DHT22;16621;47.158;7.592;2022-07-29T18:22:44;18.20;99.90
29709;DHT22;16621;47.158;7.592;2022-07-29T18:25:26;18.20;99.90
29709;DHT22;16621;47.158;7.592;2022-07-29T18:28:08;18.10;99.90
29709;DHT22;16621;47.158;7.592;2022-07-29T18:30:54;18.10;99.90
29709;DHT22;16621;47.158;7.592;2022-07-29T18:33:43;18.10;99.90
29709;DHT22;16621;47.158;7.592;2022-07-29T18:36:35;18.00;99.90
29709;DHT22;16621;47.158;7.592;2022-07-29T18:39:28;18.00;99.90
29709;DHT22;16621;47.158;7.592;2022-07-29T18:42:17;18.00;99.90